Time;durP1;ratioP1;P1;durP2;ratioP2;P2;SDS_P1;SDS_P2;PMS_P1;PMS_P2;Temp;Humidity;BMP_temperature;BMP_pressure;BME280_temperature;BME280_humidity;BME280_pressure;Samples;Min_cycle;Max_cycle;Signal;HPM_P1;HPM_P2
2022/04/15 00:00:44;;;;;;;9.30;7.60;;;6.40;99.90;;;;;;5076129;28;20440;-41
2022/04/15 00:03:11;;;;;;;11.18;7.50;;;6.40;99.90;;;;;;5060623;28;20052;-40
2022/04/15 00:05:37;;;;;;;10.82;8.50;;;6.30;99.90;;;;;;5079824;28;20410;-40
2022/04/15 00:08:05;;;;;;;10.55;7.18;;;6.30;99.90;;;;;;5060646;28;20565;-40
2022/04/15 00:10:32;;;;;;;12.23;7.95;;;6.30;99.90;;;;;;5063809;28;20060;-40
2022/04/15 00:12:59;;;;;;;10.52;7.47;;;6.30;99.90;;;;;;5061365;28;20502;-40
2022/04/15 00:15:25;;;;;;;9.85;7.75;;;6.30;99.90;;;;;;5077494;28;20150;-40
2022/04/15 00:17:51;;;;;;;10.00;7.65;;;6.30;99.90;;;;;;5079706;28;20083;-41
2022/04/15 00:20:17;;;;;;;13.15;8.68;;;6.30;99.90;;;;;;5078409;28;20506;-42
2022/04/15 00:22:43;;;;;;;16.65;8.10;;;6.30;99.90;;;;;;5079478;28;20051;-40
2022/04/15 00:25:10;;;;;;;14.07;7.88;;;6.30;99.90;;;;;;5079632;28;20056;-40
2022/04/15 00:27:37;;;;;;;10.77;8.40;;;6.30;99.90;;;;;;5080482;28;20056;-40
2022/04/15 00:30:08;;;;;;;12.82;8.85;;;6.20;99.90;;;;;;5079264;28;20051;-39
2022/04/15 00:32:34;;;;;;;14.63;8.70;;;6.20;99.90;;;;;;5078738;28;20257;-40
2022/04/15 00:34:59;;;;;;;10.80;7.80;;;6.20;99.90;;;;;;5060842;28;20044;-40
2022/04/15 00:37:25;;;;;;;15.00;8.20;;;6.20;99.90;;;;;;5072508;28;20049;-40
2022/04/15 00:39:52;;;;;;;10.60;8.05;;;6.20;99.90;;;;;;5058978;28;20462;-40
2022/04/15 00:42:20;;;;;;;12.27;8.75;;;6.10;99.90;;;;;;5079642;28;20067;-40
2022/04/15 00:44:47;;;;;;;10.25;7.95;;;6.10;99.90;;;;;;5061029;28;20056;-41
2022/04/15 00:47:24;;;;;;;10.60;7.97;;;6.10;99.90;;;;;;5079190;28;20514;-39
2022/04/15 00:49:50;;;;;;;12.20;8.35;;;6.10;99.90;;;;;;5074561;28;20048;-40
2022/04/15 00:52:20;;;;;;;13.45;9.05;;;6.10;99.90;;;;;;5083416;28;20109;-40
2022/04/15 00:54:50;;;;;;;11.50;8.15;;;6.00;99.90;;;;;;5078435;28;20048;-40
2022/04/15 00:57:22;;;;;;;12.60;9.25;;;6.00;99.90;;;;;;5080094;28;20040;-40
2022/04/15 00:59:51;;;;;;;11.77;8.30;;;6.00;99.90;;;;;;5081952;28;20044;-40
2022/04/15 01:02:18;;;;;;;13.48;9.25;;;6.00;99.90;;;;;;5085289;28;20139;-40
2022/04/15 01:04:43;;;;;;;10.40;8.55;;;6.00;99.90;;;;;;5062105;28;20051;-46
2022/04/15 01:07:15;;;;;;;13.00;9.23;;;6.00;99.90;;;;;;5079582;28;20383;-39
2022/04/15 01:09:43;;;;;;;13.38;9.40;;;5.90;99.90;;;;;;5064920;28;20051;-40
2022/04/15 01:12:10;;;;;;;10.73;8.23;;;5.90;99.90;;;;;;5079423;28;20054;-41
2022/04/15 01:14:38;;;;;;;12.13;8.23;;;5.90;99.90;;;;;;5079853;28;20084;-41
2022/04/15 01:17:04;;;;;;;9.73;7.65;;;5.90;99.90;;;;;;5077907;28;20453;-40
2022/04/15 01:19:30;;;;;;;12.63;9.45;;;5.90;99.90;;;;;;5078237;28;20488;-40
2022/04/15 01:22:01;;;;;;;12.25;9.45;;;5.90;99.90;;;;;;5086865;28;20482;-41
2022/04/15 01:24:29;;;;;;;11.88;8.85;;;6.00;99.90;;;;;;5059514;28;20058;-40
2022/04/15 01:26:55;;;;;;;13.35;9.40;;;6.00;99.90;;;;;;5079293;28;20418;-40
2022/04/15 01:29:20;;;;;;;17.13;9.35;;;6.00;99.90;;;;;;5078259;28;20400;-41
2022/04/15 01:31:46;;;;;;;13.18;8.88;;;6.00;99.90;;;;;;5081147;28;20044;-40
2022/04/15 01:34:12;;;;;;;10.18;8.70;;;6.00;99.90;;;;;;5082991;28;20048;-41
2022/04/15 01:36:38;;;;;;;14.35;9.32;;;6.10;99.90;;;;;;5083068;28;20052;-40
2022/04/15 01:39:03;;;;;;;11.80;9.35;;;6.10;99.90;;;;;;5082347;28;20242;-40
2022/04/15 01:41:29;;;;;;;12.38;8.52;;;6.20;99.90;;;;;;5062868;28;20044;-40
2022/04/15 01:43:55;;;;;;;11.80;9.50;;;6.20;99.90;;;;;;5082335;28;20075;-41
2022/04/15 01:46:21;;;;;;;12.57;9.50;;;6.20;99.90;;;;;;5082868;28;20048;-39
2022/04/15 01:48:46;;;;;;;12.07;9.65;;;6.20;99.90;;;;;;5080504;28;20129;-40
2022/04/15 01:51:12;;;;;;;9.23;8.05;;;6.30;99.90;;;;;;5069514;28;20109;-43
2022/04/15 01:53:38;;;;;;;10.68;8.85;;;6.30;99.90;;;;;;5084904;28;20052;-40
2022/04/15 01:56:05;;;;;;;12.68;9.07;;;6.40;99.90;;;;;;5081143;28;20429;-41
2022/04/15 01:58:33;;;;;;;11.93;9.25;;;6.50;99.90;;;;;;5063259;28;20094;-41
2022/04/15 02:00:59;;;;;;;11.93;8.85;;;6.50;99.90;;;;;;5085245;28;20044;-40
2022/04/15 02:03:25;;;;;;;11.30;9.52;;;6.60;99.90;;;;;;5083421;28;20430;-42
2022/04/15 02:05:51;;;;;;;12.48;9.68;;;6.60;99.90;;;;;;5082260;28;20051;-40
2022/04/15 02:08:16;;;;;;;10.90;9.77;;;6.70;99.90;;;;;;5083134;28;20051;-40
2022/04/15 02:10:42;;;;;;;10.25;9.10;;;6.70;99.90;;;;;;5082846;28;20048;-40
2022/04/15 02:13:08;;;;;;;12.05;9.30;;;6.80;99.90;;;;;;5076544;28;20052;-40
2022/04/15 02:15:33;;;;;;;9.82;8.82;;;6.80;99.90;;;;;;5082829;28;20044;-40
2022/04/15 02:17:59;;;;;;;11.88;9.20;;;6.90;99.90;;;;;;5085200;28;20118;-41
2022/04/15 02:20:25;;;;;;;9.43;8.40;;;6.90;99.90;;;;;;5064123;28;20526;-45
2022/04/15 02:22:54;;;;;;;9.73;8.68;;;7.00;99.90;;;;;;5095829;28;20054;-40
2022/04/15 02:25:19;;;;;;;13.25;9.02;;;7.00;99.90;;;;;;5082208;28;20131;-40
2022/04/15 02:27:45;;;;;;;11.80;8.93;;;7.10;99.90;;;;;;5081248;28;20064;-41
2022/04/15 02:30:11;;;;;;;9.40;8.50;;;7.10;99.90;;;;;;5073403;28;20059;-40
2022/04/15 02:32:37;;;;;;;9.50;8.60;;;7.10;99.90;;;;;;5063106;28;20055;-42
2022/04/15 02:35:03;;;;;;;9.68;8.63;;;7.20;99.90;;;;;;5074211;28;20051;-41
2022/04/15 02:37:29;;;;;;;11.27;8.75;;;7.20;99.90;;;;;;5081405;28;20044;-40
2022/04/15 02:39:55;;;;;;;11.57;8.70;;;7.20;99.90;;;;;;5080934;28;20133;-41
2022/04/15 02:42:21;;;;;;;9.65;8.27;;;7.30;99.90;;;;;;5061795;28;20454;-40
2022/04/15 02:44:47;;;;;;;12.80;9.27;;;7.30;99.90;;;;;;5081587;28;20087;-41
2022/04/15 02:47:12;;;;;;;11.15;9.57;;;7.30;99.90;;;;;;5081397;28;20479;-40
2022/04/15 02:49:38;;;;;;;13.00;9.23;;;7.40;99.90;;;;;;5081141;28;20177;-43
2022/04/15 02:52:05;;;;;;;9.75;8.68;;;7.40;99.90;;;;;;5077334;28;20498;-41
2022/04/15 02:54:31;;;;;;;12.48;9.07;;;7.50;99.90;;;;;;5081916;28;20052;-40
2022/04/15 02:56:57;;;;;;;11.32;9.45;;;7.50;99.90;;;;;;5080798;28;20379;-41
2022/04/15 02:59:22;;;;;;;12.13;9.00;;;7.50;99.90;;;;;;5061075;28;20043;-40
2022/04/15 03:01:49;;;;;;;11.10;8.57;;;7.50;99.90;;;;;;5079829;28;20048;-44
2022/04/15 03:04:15;;;;;;;10.55;9.55;;;7.60;99.90;;;;;;5080575;28;20048;-40
2022/04/15 03:06:41;;;;;;;11.18;9.40;;;7.60;99.90;;;;;;5081129;28;20556;-41
2022/04/15 03:09:10;;;;;;;12.27;8.88;;;7.70;99.90;;;;;;5080124;28;20044;-44
2022/04/15 03:11:38;;;;;;;10.38;8.80;;;7.70;99.90;;;;;;5080461;28;20537;-39
2022/04/15 03:14:05;;;;;;;8.98;7.70;;;7.70;99.90;;;;;;5061826;28;20051;-41
2022/04/15 03:16:30;;;;;;;8.57;7.68;;;7.80;99.90;;;;;;5080074;28;20048;-40
2022/04/15 03:18:56;;;;;;;10.45;7.88;;;7.80;99.90;;;;;;5079609;28;20410;-40
2022/04/15 03:21:22;;;;;;;8.68;7.78;;;7.90;99.90;;;;;;5088610;28;20124;-41
2022/04/15 03:23:47;;;;;;;10.50;7.57;;;7.90;99.90;;;;;;5080787;28;20052;-40
2022/04/15 03:26:13;;;;;;;11.07;8.07;;;8.00;99.90;;;;;;5081394;28;20777;-41
2022/04/15 03:28:39;;;;;;;10.63;7.40;;;8.00;99.90;;;;;;5080519;28;20555;-41
2022/04/15 03:31:05;;;;;;;9.82;7.15;;;8.00;99.90;;;;;;5084441;28;20040;-41
2022/04/15 03:33:32;;;;;;;9.32;7.18;;;8.00;99.90;;;;;;5081910;28;20155;-45
2022/04/15 03:36:01;;;;;;;11.18;7.40;;;8.10;99.90;;;;;;5080980;28;20051;-47
2022/04/15 03:38:27;;;;;;;8.15;7.20;;;8.00;99.90;;;;;;5056402;28;20060;-40
2022/04/15 03:40:53;;;;;;;8.48;7.15;;;8.00;99.90;;;;;;5081517;28;20054;-40
2022/04/15 03:43:18;;;;;;;10.52;7.80;;;8.10;99.90;;;;;;5080601;28;20044;-41
2022/04/15 03:45:44;;;;;;;10.18;8.18;;;8.10;99.90;;;;;;5079678;28;20421;-41
2022/04/15 03:48:10;;;;;;;9.55;7.15;;;8.20;99.90;;;;;;5080015;28;20146;-40
2022/04/15 03:50:36;;;;;;;10.23;7.18;;;8.10;99.90;;;;;;5079707;28;20056;-40
2022/04/15 03:53:01;;;;;;;8.77;6.40;;;8.10;99.90;;;;;;5088896;28;20454;-40
2022/04/15 03:55:27;;;;;;;8.35;6.82;;;8.10;99.90;;;;;;5073730;28;20097;-41
2022/04/15 03:57:53;;;;;;;9.45;6.68;;;8.10;99.90;;;;;;5072167;28;20123;-41
2022/04/15 04:00:22;;;;;;;7.68;6.78;;;8.10;99.90;;;;;;5080716;28;20044;-40
2022/04/15 04:02:51;;;;;;;10.00;6.60;;;8.10;99.90;;;;;;5061412;28;20055;-40
2022/04/15 04:05:17;;;;;;;6.90;5.47;;;8.10;99.90;;;;;;5080440;28;20482;-40
2022/04/15 04:07:44;;;;;;;8.88;6.15;;;8.00;99.90;;;;;;5070064;28;20055;-40
2022/04/15 04:10:14;;;;;;;11.00;6.53;;;8.00;99.90;;;;;;5064917;28;20132;-40
2022/04/15 04:12:41;;;;;;;9.27;6.68;;;8.00;99.90;;;;;;5079825;28;20047;-40
2022/04/15 04:15:08;;;;;;;7.70;6.85;;;8.00;99.90;;;;;;5060495;28;20501;-40
2022/04/15 04:17:34;;;;;;;6.97;5.90;;;8.00;99.90;;;;;;5077481;28;20047;-40
2022/04/15 04:20:01;;;;;;;7.57;6.10;;;8.00;99.90;;;;;;5060763;28;20056;-40
2022/04/15 04:22:31;;;;;;;7.72;5.97;;;8.10;99.90;;;;;;5080293;28;20664;-40
2022/04/15 04:24:57;;;;;;;7.72;6.20;;;8.10;99.90;;;;;;5079546;28;20145;-40
2022/04/15 04:27:23;;;;;;;9.68;7.10;;;8.10;99.90;;;;;;5078889;28;20044;-41
2022/04/15 04:29:49;;;;;;;7.78;6.40;;;8.10;99.90;;;;;;5079646;28;20047;-40
2022/04/15 04:32:16;;;;;;;7.55;6.75;;;8.10;99.90;;;;;;5078951;28;20051;-41
2022/04/15 04:34:42;;;;;;;9.10;6.55;;;8.20;99.90;;;;;;5079535;28;20105;-40
2022/04/15 04:37:08;;;;;;;8.57;7.07;;;8.10;99.90;;;;;;5079965;28;20063;-41
2022/04/15 04:39:33;;;;;;;9.75;7.45;;;8.10;99.90;;;;;;5080405;28;20040;-39
2022/04/15 04:42:00;;;;;;;11.15;7.82;;;8.10;99.90;;;;;;5081064;28;20568;-40
2022/04/15 04:44:27;;;;;;;9.43;8.43;;;8.10;99.90;;;;;;5062994;28;20159;-40
2022/04/15 04:46:53;;;;;;;11.60;8.32;;;8.20;99.90;;;;;;5064009;28;20040;-41
2022/04/15 04:49:20;;;;;;;11.10;7.97;;;8.20;99.90;;;;;;5055602;28;20060;-40
2022/04/15 04:51:45;;;;;;;10.80;8.25;;;8.20;99.90;;;;;;5081359;28;20117;-40
2022/04/15 04:54:11;;;;;;;9.40;8.07;;;8.30;99.90;;;;;;5080204;28;20048;-41
2022/04/15 04:56:37;;;;;;;10.98;8.27;;;8.30;99.90;;;;;;5080148;28;20040;-40
2022/04/15 04:59:03;;;;;;;12.70;8.32;;;8.30;99.90;;;;;;5060688;28;20078;-40
2022/04/15 05:01:28;;;;;;;12.57;8.18;;;8.30;99.90;;;;;;5076527;28;20051;-40
2022/04/15 05:03:54;;;;;;;12.07;9.18;;;8.30;99.90;;;;;;5060851;28;20060;-39
2022/04/15 05:06:20;;;;;;;11.60;8.88;;;8.30;99.90;;;;;;5083304;28;20036;-41
2022/04/15 05:08:46;;;;;;;14.43;11.25;;;8.30;99.90;;;;;;5083372;28;20056;-40
2022/04/15 05:11:11;;;;;;;16.83;11.90;;;8.20;99.90;;;;;;5057519;28;20052;-40
2022/04/15 05:13:37;;;;;;;15.30;11.43;;;8.20;99.90;;;;;;5083240;28;20055;-40
2022/04/15 05:16:03;;;;;;;16.02;13.50;;;8.20;99.90;;;;;;5065044;28;20051;-40
2022/04/15 05:18:29;;;;;;;17.02;13.13;;;8.10;99.90;;;;;;5074268;28;20081;-40
2022/04/15 05:20:54;;;;;;;22.20;13.48;;;8.10;99.90;;;;;;5086157;28;20048;-40
2022/04/15 05:23:20;;;;;;;18.38;13.18;;;8.10;99.90;;;;;;5082686;28;20044;-40
2022/04/15 05:25:46;;;;;;;20.25;14.55;;;8.10;99.90;;;;;;5083429;28;20055;-40
2022/04/15 05:28:11;;;;;;;15.75;12.88;;;8.10;99.90;;;;;;5082322;28;20047;-40
2022/04/15 05:30:37;;;;;;;18.42;12.30;;;8.10;99.90;;;;;;5064336;28;20054;-40
2022/04/15 05:33:03;;;;;;;16.85;13.75;;;8.20;99.90;;;;;;5074867;28;20473;-41
2022/04/15 05:35:29;;;;;;;14.68;12.68;;;8.10;99.90;;;;;;5080240;28;20115;-40
2022/04/15 05:37:55;;;;;;;15.27;12.63;;;8.10;99.90;;;;;;5082115;28;20545;-40
2022/04/15 05:40:22;;;;;;;15.88;12.38;;;8.10;99.90;;;;;;5082405;28;20553;-40
2022/04/15 05:42:48;;;;;;;16.67;13.23;;;8.00;99.90;;;;;;5081990;28;20642;-40
2022/04/15 05:45:14;;;;;;;16.13;12.30;;;8.00;99.90;;;;;;5082416;28;20048;-40
2022/04/15 05:47:40;;;;;;;14.43;10.88;;;8.00;99.90;;;;;;5083708;28;20405;-41
2022/04/15 05:50:07;;;;;;;12.68;10.85;;;7.90;99.90;;;;;;5081522;28;20066;-40
2022/04/15 05:52:34;;;;;;;12.25;10.32;;;7.90;99.90;;;;;;5068226;28;20052;-41
2022/04/15 05:54:59;;;;;;;10.95;9.52;;;7.90;99.90;;;;;;5078508;28;20135;-40
2022/04/15 05:57:25;;;;;;;11.18;10.02;;;7.90;99.90;;;;;;5080589;28;20259;-40
2022/04/15 05:59:51;;;;;;;11.27;9.90;;;7.90;99.90;;;;;;5083969;28;20040;-41
2022/04/15 06:02:17;;;;;;;13.00;10.18;;;7.90;99.90;;;;;;5087131;28;20127;-41
2022/04/15 06:04:43;;;;;;;11.52;8.57;;;7.90;99.90;;;;;;5063443;28;20048;-41
2022/04/15 06:07:09;;;;;;;10.75;8.55;;;7.90;99.90;;;;;;5083294;28;20480;-39
2022/04/15 06:09:35;;;;;;;10.85;8.98;;;7.90;99.90;;;;;;5082223;28;20131;-40
2022/04/15 06:12:00;;;;;;;10.38;7.93;;;8.00;99.90;;;;;;5073648;28;20040;-40
2022/04/15 06:14:33;;;;;;;9.02;7.13;;;7.90;99.90;;;;;;5078697;28;20125;-40
2022/04/15 06:16:59;;;;;;;10.73;7.47;;;8.00;99.90;;;;;;5081391;28;20043;-40
2022/04/15 06:19:25;;;;;;;8.20;7.03;;;8.00;99.90;;;;;;5081481;28;20048;-40
2022/04/15 06:21:51;;;;;;;7.00;6.30;;;8.00;99.90;;;;;;5080709;28;20055;-40
2022/04/15 06:24:17;;;;;;;6.55;5.75;;;8.00;99.90;;;;;;5063059;28;20089;-40
2022/04/15 06:26:43;;;;;;;5.97;5.45;;;8.00;99.90;;;;;;5060945;28;20080;-40
2022/04/15 06:29:09;;;;;;;7.95;5.32;;;8.00;99.90;;;;;;5063340;28;20043;-40
2022/04/15 06:31:34;;;;;;;6.22;5.63;;;8.00;99.90;;;;;;5081923;28;20055;-40
2022/04/15 06:34:00;;;;;;;7.07;5.40;;;8.00;99.90;;;;;;5063836;28;20478;-40
2022/04/15 06:36:26;;;;;;;6.13;4.70;;;8.10;99.90;;;;;;5081409;28;20226;-40
2022/04/15 06:38:52;;;;;;;4.45;4.00;;;8.10;99.90;;;;;;5081497;28;20040;-40
2022/04/15 06:41:17;;;;;;;8.73;4.60;;;8.10;99.90;;;;;;5062736;28;20093;-40
2022/04/15 06:43:43;;;;;;;4.50;4.10;;;8.10;99.90;;;;;;5081940;28;20089;-40
2022/04/15 06:46:09;;;;;;;4.30;3.67;;;8.10;99.90;;;;;;5080857;28;20078;-40
2022/04/15 06:48:34;;;;;;;5.25;4.00;;;8.20;99.90;;;;;;5044463;28;20597;-39
2022/04/15 06:51:02;;;;;;;4.35;3.53;;;8.20;99.90;;;;;;5079094;28;20039;-40
2022/04/15 06:53:28;;;;;;;4.03;3.40;;;8.20;99.90;;;;;;5078181;28;20507;-40
2022/04/15 06:55:54;;;;;;;5.25;4.03;;;8.10;99.90;;;;;;5079951;28;20051;-40
2022/04/15 06:58:20;;;;;;;4.20;3.80;;;8.20;99.90;;;;;;5077842;28;20048;-41
2022/04/15 07:00:46;;;;;;;4.40;3.65;;;8.10;99.90;;;;;;5080075;28;20043;-41
2022/04/15 07:03:12;;;;;;;4.00;3.60;;;8.10;99.90;;;;;;5061584;28;20509;-41
2022/04/15 07:05:43;;;;;;;4.40;3.38;;;8.10;99.90;;;;;;5079477;28;20574;-40
2022/04/15 07:08:10;;;;;;;5.07;3.83;;;8.10;99.90;;;;;;5077440;28;20552;-40
2022/04/15 07:10:39;;;;;;;4.47;3.40;;;8.10;99.90;;;;;;5080812;28;20532;-41
2022/04/15 07:13:06;;;;;;;4.13;3.72;;;8.10;99.90;;;;;;5081380;28;20086;-40
2022/04/15 07:15:32;;;;;;;5.45;4.28;;;8.10;99.90;;;;;;5078231;28;20604;-41
2022/04/15 07:17:59;;;;;;;5.00;4.18;;;8.10;99.90;;;;;;5064787;28;20044;-40
2022/04/15 07:20:25;;;;;;;5.97;5.05;;;8.10;99.90;;;;;;5055996;28;20087;-41
2022/04/15 07:22:56;;;;;;;5.50;4.95;;;8.00;99.90;;;;;;5069080;28;20192;-39
2022/04/15 07:25:22;;;;;;;5.90;5.35;;;8.00;99.90;;;;;;5063719;28;20165;-41
2022/04/15 07:27:48;;;;;;;7.45;5.90;;;7.90;99.90;;;;;;5062894;28;20048;-40
2022/04/15 07:30:13;;;;;;;9.13;6.88;;;7.90;99.90;;;;;;5080887;28;20051;-40
2022/04/15 07:32:39;;;;;;;9.88;7.35;;;7.80;99.90;;;;;;5073825;28;20058;-40
2022/04/15 07:35:05;;;;;;;8.95;7.90;;;7.80;99.90;;;;;;5080960;28;20075;-41
2022/04/15 07:37:31;;;;;;;10.88;8.80;;;7.80;99.90;;;;;;5072703;28;20047;-39
2022/04/15 07:39:57;;;;;;;9.77;8.77;;;7.80;99.90;;;;;;5079622;28;20488;-40
2022/04/15 07:42:23;;;;;;;11.45;9.05;;;7.80;99.90;;;;;;5080413;28;20044;-40
2022/04/15 07:44:48;;;;;;;9.93;7.50;;;7.90;99.90;;;;;;5080996;28;20113;-41
2022/04/15 07:47:15;;;;;;;12.05;8.70;;;7.90;99.90;;;;;;5080829;28;20098;-40
2022/04/15 07:49:41;;;;;;;10.55;9.45;;;8.00;99.90;;;;;;5085497;28;20074;-40
2022/04/15 07:52:08;;;;;;;14.82;10.52;;;8.10;99.90;;;;;;5078323;28;20505;-40
2022/04/15 07:54:34;;;;;;;12.05;10.02;;;8.20;99.90;;;;;;5079438;28;20541;-41
2022/04/15 07:57:01;;;;;;;16.45;10.80;;;8.20;99.90;;;;;;5079317;28;20113;-40
2022/04/15 07:59:28;;;;;;;14.73;12.07;;;8.30;99.90;;;;;;5068210;28;20048;-40
2022/04/15 08:01:53;;;;;;;14.63;12.25;;;8.40;99.90;;;;;;5059225;28;20468;-40
2022/04/15 08:04:20;;;;;;;15.18;11.60;;;8.60;99.90;;;;;;5069871;28;20122;-40
2022/04/15 08:06:46;;;;;;;13.98;10.57;;;8.60;99.90;;;;;;5076649;28;20098;-41
2022/04/15 08:09:11;;;;;;;15.15;11.23;;;8.70;99.90;;;;;;5076918;28;20123;-40
2022/04/15 08:11:37;;;;;;;18.27;13.05;;;8.70;99.90;;;;;;5078868;28;20077;-41
2022/04/15 08:14:03;;;;;;;16.35;12.75;;;8.70;99.90;;;;;;5078949;28;20451;-41
2022/04/15 08:16:29;;;;;;;14.57;12.68;;;8.80;99.90;;;;;;5079540;28;20044;-40
2022/04/15 08:18:56;;;;;;;15.93;12.38;;;9.00;99.90;;;;;;5079734;28;20044;-40
2022/04/15 08:21:23;;;;;;;16.67;12.77;;;9.40;99.90;;;;;;5066036;28;20048;-41
2022/04/15 08:23:49;;;;;;;14.35;10.90;;;9.70;99.90;;;;;;5080765;28;20039;-40
2022/04/15 08:26:15;;;;;;;16.75;13.02;;;9.90;99.90;;;;;;5080026;28;20055;-40
2022/04/15 08:28:41;;;;;;;15.18;12.32;;;10.00;99.90;;;;;;5081050;28;20053;-41
2022/04/15 08:31:08;;;;;;;16.20;11.60;;;10.30;99.90;;;;;;5082400;28;20102;-41
2022/04/15 08:33:35;;;;;;;17.65;12.02;;;10.50;99.90;;;;;;5084031;28;20043;-41
2022/04/15 08:36:05;;;;;;;14.18;11.38;;;10.50;99.90;;;;;;5079622;28;20543;-45
2022/04/15 08:38:31;;;;;;;14.85;12.35;;;10.50;99.90;;;;;;5078402;28;20047;-42
2022/04/15 08:40:58;;;;;;;14.55;10.57;;;10.50;99.90;;;;;;5081839;28;20121;-40
2022/04/15 08:43:26;;;;;;;13.30;11.55;;;10.40;99.90;;;;;;5082070;28;20036;-40
2022/04/15 08:45:55;;;;;;;14.10;11.15;;;10.40;99.90;;;;;;5064146;28;20066;-41
2022/04/15 08:48:23;;;;;;;12.55;10.63;;;10.40;99.90;;;;;;5082679;28;20052;-40
2022/04/15 08:50:50;;;;;;;10.98;9.73;;;10.40;99.90;;;;;;5065145;28;20043;-41
2022/04/15 08:53:22;;;;;;;11.88;10.02;;;10.20;99.90;;;;;;5080768;28;20064;-40
2022/04/15 08:55:48;;;;;;;13.13;9.50;;;10.30;99.90;;;;;;5078973;28;20196;-40
2022/04/15 08:58:14;;;;;;;14.18;10.02;;;10.20;99.90;;;;;;5083086;28;20055;-42
2022/04/15 09:00:40;;;;;;;12.23;10.57;;;10.20;99.90;;;;;;5083366;28;20043;-40
2022/04/15 09:03:06;;;;;;;14.70;10.43;;;10.10;99.90;;;;;;5083965;28;20126;-40
2022/04/15 09:05:32;;;;;;;14.20;10.45;;;10.20;99.90;;;;;;5083515;28;20169;-43
2022/04/15 09:08:10;;;;;;;12.10;9.60;;;10.10;99.90;;;;;;5064108;28;20047;-42
2022/04/15 09:10:37;;;;;;;14.15;9.75;;;10.20;99.90;;;;;;5049084;28;20087;-41
2022/04/15 09:13:04;;;;;;;16.48;10.52;;;10.20;99.90;;;;;;5083734;28;20043;-41
2022/04/15 09:15:30;;;;;;;12.45;9.93;;;10.30;99.90;;;;;;5083022;28;20040;-41
2022/04/15 09:17:59;;;;;;;10.80;9.38;;;10.40;99.90;;;;;;5063686;28;20060;-41
2022/04/15 09:20:29;;;;;;;9.88;8.80;;;10.40;99.90;;;;;;5065176;28;20047;-41
2022/04/15 09:22:56;;;;;;;12.43;9.13;;;10.50;99.90;;;;;;5076184;28;20119;-41
2022/04/15 09:25:25;;;;;;;12.05;8.43;;;10.50;99.90;;;;;;5064469;28;20048;-40
2022/04/15 09:27:57;;;;;;;11.95;8.68;;;10.60;99.90;;;;;;5081754;28;20499;-41
2022/04/15 09:30:39;;;;;;;9.82;7.68;;;10.80;99.90;;;;;;5059829;28;20048;-41
2022/04/15 09:33:05;;;;;;;11.30;8.00;;;11.00;99.90;;;;;;5064228;28;20541;-40
2022/04/15 09:35:32;;;;;;;8.25;6.90;;;11.20;99.90;;;;;;5083919;28;20048;-41
2022/04/15 09:38:03;;;;;;;11.52;7.45;;;11.40;99.90;;;;;;5082235;28;20050;-42
2022/04/15 09:40:31;;;;;;;11.10;6.50;;;11.70;99.90;;;;;;5064844;28;20060;-41
2022/04/15 09:42:58;;;;;;;11.15;7.15;;;11.70;99.90;;;;;;5064455;28;20051;-42
2022/04/15 09:45:30;;;;;;;7.00;6.30;;;11.60;99.90;;;;;;5084036;28;20048;-40
2022/04/15 09:48:04;;;;;;;8.38;6.18;;;11.60;99.90;;;;;;5066391;28;20151;-41
2022/04/15 09:50:34;;;;;;;10.25;7.10;;;11.70;99.90;;;;;;5067035;28;20091;-41
2022/04/15 09:53:07;;;;;;;8.75;6.35;;;11.60;99.90;;;;;;5081716;28;20142;-47
2022/04/15 09:55:35;;;;;;;8.60;5.80;;;11.50;99.90;;;;;;5082993;28;20106;-43
2022/04/15 09:58:07;;;;;;;8.55;6.35;;;11.80;99.90;;;;;;5080800;28;20105;-42
2022/04/15 10:00:35;;;;;;;9.48;6.78;;;12.10;99.90;;;;;;5049508;28;20062;-43
2022/04/15 10:03:03;;;;;;;10.50;5.85;;;12.40;99.90;;;;;;5082672;28;20127;-41
2022/04/15 10:05:30;;;;;;;9.18;6.88;;;12.60;99.90;;;;;;5082961;28;20064;-42
2022/04/15 10:08:00;;;;;;;11.90;6.18;;;12.50;99.90;;;;;;5081745;28;20079;-41
2022/04/15 10:10:28;;;;;;;8.07;5.78;;;12.40;99.90;;;;;;5081795;28;20062;-42
2022/04/15 10:12:55;;;;;;;18.30;7.60;;;12.30;99.90;;;;;;5063959;28;20561;-41
2022/04/15 10:15:22;;;;;;;11.82;6.68;;;12.30;99.90;;;;;;5082218;28;20082;-41
2022/04/15 10:17:50;;;;;;;10.63;6.10;;;12.30;99.90;;;;;;5082514;28;20338;-41
2022/04/15 10:20:16;;;;;;;9.38;6.13;;;12.30;99.90;;;;;;5082298;28;20609;-41
2022/04/15 10:22:43;;;;;;;8.05;6.07;;;12.30;99.90;;;;;;5063546;28;20062;-41
2022/04/15 10:25:09;;;;;;;7.82;5.70;;;12.10;99.90;;;;;;5062583;28;20506;-42
2022/04/15 10:27:35;;;;;;;7.85;5.65;;;12.00;99.90;;;;;;5082082;28;20040;-42
2022/04/15 10:30:20;;;;;;;9.65;6.28;;;11.90;99.90;;;;;;5063480;28;20052;-42
2022/04/15 10:32:55;;;;;;;9.85;6.75;;;11.90;99.90;;;;;;5082056;28;20501;-41
2022/04/15 10:35:22;;;;;;;8.20;5.57;;;11.90;99.90;;;;;;5081945;28;20135;-41
2022/04/15 10:38:17;;;;;;;8.02;5.80;;;12.00;99.90;;;;;;5081598;28;20372;-42
2022/04/15 10:40:44;;;;;;;9.10;5.75;;;12.30;99.90;;;;;;5063580;28;20550;-41
2022/04/15 10:43:28;;;;;;;10.45;6.30;;;12.90;99.90;;;;;;5081487;28;20044;-41
2022/04/15 10:46:14;;;;;;;6.15;4.70;;;13.20;99.90;;;;;;5081228;28;20052;-41
2022/04/15 10:48:41;;;;;;;8.45;5.53;;;13.60;99.90;;;;;;5063317;28;20055;-41
2022/04/15 10:51:29;;;;;;;5.60;4.90;;;13.80;99.90;;;;;;5081280;28;20550;-41
2022/04/15 10:54:16;;;;;;;10.15;5.40;;;13.70;99.90;;;;;;5056428;28;20052;-41
2022/04/15 10:57:17;;;;;;;9.20;5.50;;;13.50;99.90;;;;;;5081551;28;20056;-41
2022/04/15 11:02:48;;;;;;;11.18;5.97;;;13.20;99.90;;;;;;5083131;28;20048;-41
2022/04/15 11:05:37;;;;;;;;;;;12.80;99.90;;;;;;5066361;28;20122;-47
2022/04/15 11:08:11;;;;;;;5.93;5.22;;;12.90;99.90;;;;;;5070424;28;19923;-42
2022/04/15 11:10:42;;;;;;;7.05;5.30;;;13.00;99.90;;;;;;5082504;28;20069;-42
2022/04/15 11:13:09;;;;;;;6.40;4.47;;;13.10;99.90;;;;;;5080414;28;20544;-43
2022/04/15 11:16:01;;;;;;;8.27;4.75;;;13.30;99.90;;;;;;5060878;28;20044;-41
2022/04/15 11:18:51;;;;;;;8.15;5.90;;;13.20;99.90;;;;;;5078643;28;20353;-42
2022/04/15 11:21:21;;;;;;;8.30;5.80;;;13.00;99.90;;;;;;5080646;28;20480;-42
2022/04/15 11:23:56;;;;;;;7.22;5.38;;;13.00;99.90;;;;;;5079406;28;20443;-42
2022/04/15 11:26:27;;;;;;;9.85;6.45;;;12.90;99.90;;;;;;5077568;28;20563;-42
2022/04/15 11:28:54;;;;;;;9.10;6.85;;;12.90;99.90;;;;;;5061188;28;20052;-42
2022/04/15 11:31:25;;;;;;;7.38;6.30;;;12.90;99.90;;;;;;5079846;28;20054;-41
2022/04/15 11:33:53;;;;;;;8.45;6.38;;;12.90;99.90;;;;;;5078666;28;20047;-42
2022/04/15 11:36:20;;;;;;;10.23;7.38;;;13.00;99.90;;;;;;5062810;28;20097;-42
2022/04/15 11:38:48;;;;;;;13.25;7.53;;;12.90;99.90;;;;;;5080325;28;20055;-41
2022/04/15 11:41:33;;;;;;;10.50;7.32;;;12.80;99.90;;;;;;5062407;28;20495;-42
2022/04/15 11:44:03;;;;;;;9.98;7.22;;;12.60;99.90;;;;;;5072098;28;20105;-43
2022/04/15 11:46:35;;;;;;;13.32;9.10;;;12.80;99.90;;;;;;5079232;28;20055;-42
2022/04/15 11:49:02;;;;;;;13.40;9.82;;;12.90;99.90;;;;;;5079972;28;20455;-43
2022/04/15 11:51:28;;;;;;;10.50;8.88;;;12.80;99.90;;;;;;5078070;28;20613;-41
2022/04/15 11:53:57;;;;;;;10.35;9.20;;;12.80;99.90;;;;;;5079394;28;20081;-41
2022/04/15 11:56:27;;;;;;;9.55;7.63;;;12.80;99.90;;;;;;5081152;28;20550;-42
2022/04/15 11:58:53;;;;;;;15.95;12.57;;;13.00;99.90;;;;;;5079977;28;20071;-43
2022/04/15 12:01:27;;;;;;;10.50;7.60;;;13.10;99.90;;;;;;5066219;28;20405;-41
2022/04/15 12:03:53;;;;;;;13.75;9.85;;;13.20;99.90;;;;;;5062081;28;20639;-42
2022/04/15 12:06:18;;;;;;;11.32;8.02;;;13.30;99.90;;;;;;5080863;28;20040;-42
2022/04/15 12:08:45;;;;;;;9.85;7.85;;;13.30;99.90;;;;;;5079243;28;20559;-42
2022/04/15 12:11:11;;;;;;;13.90;7.60;;;13.30;99.90;;;;;;5080634;28;20044;-42
2022/04/15 12:13:36;;;;;;;10.57;7.13;;;13.20;99.90;;;;;;5065349;28;20092;-41
2022/04/15 12:16:04;;;;;;;10.48;7.70;;;13.30;99.90;;;;;;5082317;28;20430;-42
2022/04/15 12:18:30;;;;;;;8.18;7.25;;;13.30;99.90;;;;;;5081722;28;20651;-41
2022/04/15 12:20:56;;;;;;;9.75;7.78;;;13.40;99.90;;;;;;5076503;28;20044;-41
2022/04/15 12:23:25;;;;;;;8.77;7.45;;;13.40;99.90;;;;;;5056341;28;20404;-42
2022/04/15 12:26:09;;;;;;;9.35;7.70;;;13.50;99.90;;;;;;5062083;28;20151;-41
2022/04/15 12:31:31;;;;;;;10.27;7.32;;;13.60;99.90;;;;;;5078420;28;20047;-42
2022/04/15 12:33:59;;;;;;;17.15;8.02;;;13.40;99.90;;;;;;5080250;28;20465;-42
2022/04/15 12:36:45;;;;;;;8.43;6.32;;;13.40;99.90;;;;;;5062052;28;20139;-43
2022/04/15 12:39:13;;;;;;;9.88;7.45;;;13.30;99.90;;;;;;5077004;28;20047;-43
2022/04/15 12:41:42;;;;;;;8.32;7.00;;;13.40;99.90;;;;;;5055747;28;20073;-43
2022/04/15 12:44:32;;;;;;;11.20;7.75;;;13.30;99.90;;;;;;5061815;28;20418;-41
2022/04/15 12:47:00;;;;;;;10.68;7.35;;;13.20;99.90;;;;;;5078969;28;20592;-43
2022/04/15 12:49:35;;;;;;;8.73;7.85;;;13.10;99.90;;;;;;5077870;28;20078;-42
2022/04/15 12:52:11;;;;;;;9.00;7.50;;;13.10;99.90;;;;;;5076879;28;20154;-42
2022/04/15 12:54:56;;;;;;;10.90;8.02;;;13.00;99.90;;;;;;5077148;28;20593;-41